• Join FlightAware (Why Join?)
  • Login
  • US Flag 
09:16PM EDT


 

Airport Tracker/Info


-or-


 

Live Flight TrackerFlight Track Log ✈ CCA1682 ✈ 03-Aug-2014 ✈ ZYMD / MDG - ZBAA / PEK

Flight Track Log - Related Links

Times and Time Zones

All times are in EDT time to prevent confusion due to time zone crossing. See the CCA1682 flight status page for this flight to view local times or setup timezone preferences in your user account.

Time Position Orientation Groundspeed Altitude Reporting Facility
EDT Latitude Longitude Course Direction KTS MPH feet Rate Location/Type
09:29AM 44.3963 129.0908 250° West  Level Estimated
09:30AM 44.3641 128.9715 249° West  Level Estimated
09:31AM 44.3317 128.8524 249° West  Level Estimated
09:32AM 44.2992 128.7335 249° West  Level Estimated
09:33AM 44.2666 128.6147 249° West  Level Estimated
09:34AM 44.2339 128.4960 249° West  Level Estimated
09:35AM 44.2010 128.3774 249° West  Level Estimated
09:36AM 44.1680 128.2590 249° West  Level Estimated
09:37AM 44.1349 128.1407 249° West  Level Estimated
09:38AM 44.1017 128.0225 249° West  Level Estimated
09:39AM 44.0684 127.9044 249° West  Level Estimated
09:40AM 44.0349 127.7866 248° West  Level Estimated
09:41AM 44.0013 127.6688 248° West  Level Estimated
09:42AM 43.9676 127.5511 248° West  Level Estimated
09:43AM 43.9337 127.4336 248° West  Level Estimated
09:44AM 43.8998 127.3163 248° West  Level Estimated
09:45AM 43.8657 127.1991 248° West  Level Estimated
09:46AM 43.8315 127.0819 248° West  Level Estimated
09:47AM 43.7972 126.9650 248° West  Level Estimated
09:48AM 43.7628 126.8482 248° West  Level Estimated
09:49AM 43.7282 126.7315 248° West  Level Estimated
09:50AM 43.6936 126.6149 248° West  Level Estimated
09:51AM 43.6588 126.4985 248° West  Level Estimated
09:52AM 43.6239 126.3822 248° West  Level Estimated
09:53AM 43.5888 126.2660 247° West  Level Estimated
09:54AM 43.5537 126.1500 247° West  Level Estimated
09:55AM 43.5184 126.0341 247° West  Level Estimated
09:56AM 43.4831 125.9184 247° West  Level Estimated
09:57AM 43.4476 125.8028 247° West  Level Estimated
09:58AM 43.4120 125.6873 247° West  Level Estimated
09:59AM 43.3762 125.5719 247° West  Level Estimated
10:00AM 43.3404 125.4567 247° West  Level Estimated
10:01AM 43.3045 125.3417 247° West  Level Estimated
10:02AM 43.2684 125.2267 247° West  Level Estimated
10:03AM 43.2322 125.1119 247° West  Level Estimated
10:04AM 43.1959 124.9973 247° West  Level Estimated
10:05AM 43.1595 124.8828 246° West  Level Estimated
10:06AM 43.1230 124.7684 246° West  Level Estimated
10:07AM 43.0863 124.6541 246° West  Level Estimated
10:08AM 43.0495 124.5400 246° West  Level Estimated
10:09AM 43.0127 124.4260 246° West  Level Estimated
10:10AM 42.9757 124.3122 246° West  Level Estimated
10:11AM 42.9386 124.1985 246° West  Level Estimated
10:12AM 42.9014 124.0849 246° West  Level Estimated
10:13AM 42.8641 123.9715 246° West  Level Estimated
10:14AM 42.8266 123.8582 246° West  Level Estimated
10:15AM 42.7891 123.7450 246° West  Level Estimated
10:16AM 42.7515 123.6320 246° West  Level Estimated
10:17AM 42.7137 123.5191 246° West  Level Estimated
10:18AM 42.6758 123.4064 245° Southwest  Level Estimated
10:19AM 42.6378 123.2938 245° Southwest  Level Estimated
10:20AM 42.5997 123.1813 245° Southwest  Level Estimated
10:21AM 42.5615 123.0690 245° Southwest  Level Estimated
10:22AM 42.5232 122.9568 245° Southwest  Level Estimated
10:23AM 42.4848 122.8448 245° Southwest  Level Estimated
10:24AM 42.4463 122.7328 245° Southwest  Level Estimated
10:25AM 42.4076 122.6211 245° Southwest  Level Estimated
10:26AM 42.3689 122.5094 245° Southwest  Level Estimated
10:27AM 42.3300 122.3979 245° Southwest  Level Estimated
10:28AM 42.2910 122.2866 245° Southwest  Level Estimated
10:29AM 42.2520 122.1753 245° Southwest  Level Estimated
10:30AM 42.2128 122.0642 245° Southwest  Level Estimated
10:31AM 42.1735 121.9533 244° Southwest  Level Estimated
10:32AM 42.1341 121.8425 244° Southwest  Level Estimated
10:33AM 42.0946 121.7318 244° Southwest  Level Estimated
10:34AM 42.0550 121.6213 244° Southwest  Level Estimated
10:35AM 42.0153 121.5109 244° Southwest  Level Estimated
10:36AM 41.9754 121.4006 244° Southwest  Level Estimated
10:37AM 41.9355 121.2905 244° Southwest  Level Estimated
10:38AM 41.8955 121.1805 244° Southwest  Level Estimated
10:39AM 41.8554 121.0707 244° Southwest  Level Estimated
10:40AM 41.8151 120.9610 244° Southwest  Level Estimated
10:41AM 41.7748 120.8514 244° Southwest  Level Estimated
10:42AM 41.7343 120.7420 244° Southwest  Level Estimated
10:43AM 41.6938 120.6327 244° Southwest  Level Estimated
10:44AM 41.6531 120.5235 244° Southwest  Level Estimated
10:45AM 41.6124 120.4145 243° Southwest  Level Estimated
10:46AM 41.5715 120.3056 243° Southwest  Level Estimated
10:47AM 41.5305 120.1969 243° Southwest  Level Estimated
10:48AM 41.4895 120.0882 243° Southwest  Level Estimated
10:49AM 41.4483 119.9798 243° Southwest  Level Estimated
10:50AM 41.4070 119.8715 243° Southwest  Level Estimated
10:51AM 41.3657 119.7633 243° Southwest  Level Estimated
10:52AM 41.3242 119.6552 243° Southwest  Level Estimated
10:53AM 41.2826 119.5473 243° Southwest  Level Estimated
10:54AM 41.2409 119.4395 243° Southwest  Level Estimated
10:55AM 41.1992 119.3319 243° Southwest  Level Estimated
10:56AM 41.1573 119.2243 243° Southwest  Level Estimated
10:57AM 41.1153 119.1170 243° Southwest  Level Estimated
10:58AM 41.0732 119.0098 243° Southwest  Level Estimated
10:59AM 41.0311 118.9027 242° Southwest  Level Estimated
11:00AM 40.9888 118.7957 242° Southwest  Level Estimated
11:01AM 40.9464 118.6889 242° Southwest  Level Estimated
11:02AM 40.9040 118.5822 242° Southwest  Level Estimated
11:03AM 40.8614 118.4757 242° Southwest  Level Estimated
11:04AM 40.8187 118.3693 242° Southwest  Level Estimated
11:05AM 40.7760 118.2630 242° Southwest  Level Estimated
11:06AM 40.7331 118.1569 242° Southwest  Level Estimated
11:07AM 40.6901 118.0509 242° Southwest  Level Estimated
11:08AM 40.6471 117.9450 242° Southwest  Level Estimated
11:09AM 40.6039 117.8393 242° Southwest  Level Estimated
11:10AM 40.5607 117.7337 242° Southwest  Level Estimated
11:11AM 40.5173 117.6282 242° Southwest  Level Estimated
11:12AM 40.4739 117.5229 242° Southwest  Level Estimated
11:13AM 40.4304 117.4177 241° Southwest  Level Estimated
11:14AM 40.3867 117.3127 241° Southwest  Level Estimated
11:15AM 40.3430 117.2078 241° Southwest  Level Estimated
11:16AM 40.2992 117.1030 241° Southwest  Level Estimated
11:17AM 40.2553 116.9984 241° Southwest  Level Estimated
11:18AM 40.2113 116.8939 241° Southwest  Level Estimated
11:19AM 40.1672 116.7896 241° Southwest  Level Estimated
11:20AM 40.1230 116.6853 241° Southwest  Level Estimated
11:21AM 40.0801 116.5846 241° Southwest  Level Estimated
11:22AM 40.0801 116.5846 North  Level Estimated
11:23AM 40.0801 116.5846 North  Level Estimated
11:24AM 40.0801 116.5846 North  Level Estimated
11:25AM 40.0801 116.5846 North  Level Estimated
11:26AM 40.0801 116.5846 North  Level Estimated
11:27AM 40.0801 116.5846 North  Level Estimated
11:28AM 40.0801 116.5846 North  Level Estimated
11:29AM 40.0801 116.5846 North  Level Estimated